createdAt,value
2023-04-28T00:00:52.984Z,98383.50
2023-04-28T00:03:19.836Z,98384.59
2023-04-28T00:05:47.534Z,98388.59
2023-04-28T00:08:14.262Z,98380.84
2023-04-28T00:10:41.202Z,98370.97
2023-04-28T00:13:07.747Z,98381.13
2023-04-28T00:15:34.065Z,98379.78
2023-04-28T00:18:02.120Z,98369.09
2023-04-28T00:20:29.179Z,98370.47
2023-04-28T00:22:56.280Z,98364.31
2023-04-28T00:25:24.781Z,98361.09
2023-04-28T00:27:51.201Z,98351.78
2023-04-28T00:33:07.860Z,98344.03
2023-04-28T00:35:34.780Z,98343.25
2023-04-28T00:38:01.622Z,98341.91
2023-04-28T00:42:57.097Z,98338.72
2023-04-28T00:45:23.403Z,98337.13
2023-04-28T00:47:51.925Z,98331.22
2023-04-28T00:50:20.544Z,98322.16
2023-04-28T00:52:49.074Z,98320.06
2023-04-28T00:55:17.426Z,98321.13
2023-04-28T00:57:44.287Z,98317.38
2023-04-28T01:00:11.788Z,98322.72
2023-04-28T01:02:39.025Z,98310.72
2023-04-28T01:05:07.177Z,98309.41
2023-04-28T01:07:34.848Z,98311.22
2023-04-28T01:10:03.527Z,98309.13
2023-04-28T01:12:30.657Z,98304.84
2023-04-28T01:14:56.973Z,98300.84
2023-04-28T01:17:23.728Z,98296.59
2023-04-28T01:19:50.504Z,98291.25
2023-04-28T01:22:18.048Z,98297.66
2023-04-28T01:24:45.007Z,98294.44
2023-04-28T01:27:14.484Z,98297.66
2023-04-28T01:29:40.978Z,98302.69
2023-04-28T01:32:08.360Z,98298.69
2023-04-28T01:34:38.788Z,98294.41
2023-04-28T01:37:09.912Z,98293.91
2023-04-28T01:39:41.576Z,98287.22
2023-04-28T01:42:08.172Z,98280.81
2023-04-28T01:44:35.197Z,98280.28
2023-04-28T01:47:01.784Z,98277.06
2023-04-28T01:49:29.582Z,98277.06
2023-04-28T01:51:56.251Z,98268.03
2023-04-28T01:54:23.757Z,98259.47
2023-04-28T01:56:50.086Z,98269.34
2023-04-28T01:59:16.702Z,98264.53
2023-04-28T02:01:43.275Z,98265.34
2023-04-28T02:04:09.799Z,98261.63
2023-04-28T02:06:40.240Z,98257.38
2023-04-28T02:09:06.696Z,98254.94
2023-04-28T02:11:33.015Z,98253.34
2023-04-28T02:14:04.036Z,98248.28
2023-04-28T02:16:30.411Z,98235.75
2023-04-28T02:18:56.826Z,98232.03
2023-04-28T02:21:23.694Z,98228.56
2023-04-28T02:23:52.565Z,98227.75
2023-04-28T02:26:19.188Z,98228.03
2023-04-28T02:28:48.987Z,98227.22
2023-04-28T02:31:15.760Z,98224.03
2023-04-28T02:33:46.741Z,98220.00
2023-04-28T02:36:13.467Z,98221.88
2023-04-28T02:38:41.488Z,98216.53
2023-04-28T02:41:09.512Z,98211.22
2023-04-28T02:43:37.337Z,98213.34
2023-04-28T02:46:06.706Z,98214.94
2023-04-28T02:48:38.105Z,98211.47
2023-04-28T02:51:06.557Z,98209.88
2023-04-28T02:53:35.055Z,98207.50
2023-04-28T02:56:04.351Z,98211.22
2023-04-28T02:58:33.285Z,98206.94
2023-04-28T03:01:03.467Z,98208.03
2023-04-28T03:03:31.662Z,98206.44
2023-04-28T03:05:58.708Z,98201.34
2023-04-28T03:08:26.115Z,98197.88
2023-04-28T03:10:53.480Z,98193.91
2023-04-28T03:13:19.802Z,98190.44
2023-04-28T03:15:46.344Z,98185.09
2023-04-28T03:18:17.050Z,98188.31
2023-04-28T03:20:43.601Z,98186.16
2023-04-28T03:23:12.754Z,98179.50
2023-04-28T03:25:39.077Z,98174.47
2023-04-28T03:28:07.934Z,98174.47
2023-04-28T03:30:34.543Z,98170.16
2023-04-28T03:33:02.301Z,98171.25
2023-04-28T03:35:29.707Z,98169.09
2023-04-28T03:37:57.392Z,98164.84
2023-04-28T03:40:23.935Z,98157.94
2023-04-28T03:42:50.244Z,98153.66
2023-04-28T03:45:16.750Z,98152.06
2023-04-28T03:47:45.611Z,98149.66
2023-04-28T03:50:14.134Z,98150.72
2023-04-28T03:52:41.489Z,98154.19
2023-04-28T03:55:08.020Z,98150.22
2023-04-28T03:57:36.682Z,98147.78
2023-04-28T04:00:03.326Z,98152.59
2023-04-28T04:02:31.404Z,98148.06
2023-04-28T04:07:39.139Z,98148.84
2023-04-28T04:10:05.885Z,98144.59
2023-04-28T04:12:32.332Z,98153.13
2023-04-28T04:14:59.027Z,98147.78
2023-04-28T04:17:27.535Z,98146.47
2023-04-28T04:20:03.440Z,98146.47
2023-04-28T04:22:37.700Z,98137.69
2023-04-28T04:25:04.333Z,98141.16
2023-04-28T04:27:30.950Z,98140.59
2023-04-28T04:29:58.914Z,98141.66
2023-04-28T04:32:27.185Z,98133.16
2023-04-28T04:34:54.890Z,98131.00
2023-04-28T04:37:22.522Z,98137.94
2023-04-28T04:39:48.947Z,98136.34
2023-04-28T04:42:25.018Z,98133.16
2023-04-28T04:44:53.262Z,98131.53
2023-04-28T04:47:19.602Z,98129.69
2023-04-28T04:49:45.922Z,98134.19
2023-04-28T04:52:12.335Z,98129.16
2023-04-28T04:54:38.957Z,98137.16
2023-04-28T04:57:06.594Z,98130.22
2023-04-28T04:59:32.917Z,98129.69
2023-04-28T05:01:59.542Z,98126.22
2023-04-28T05:04:29.123Z,98119.03
2023-04-28T05:06:58.194Z,98118.50
2023-04-28T05:09:27.141Z,98119.56
2023-04-28T05:11:54.057Z,98116.91
2023-04-28T05:17:09.021Z,98116.91
2023-04-28T05:19:35.587Z,98112.66
2023-04-28T05:22:02.210Z,98103.31
2023-04-28T05:24:31.744Z,98111.06
2023-04-28T05:26:58.291Z,98109.19
2023-04-28T05:29:28.222Z,98112.63
2023-04-28T05:31:55.852Z,98103.31
2023-04-28T05:34:23.250Z,98102.50
2023-04-28T05:36:49.983Z,98108.91
2023-04-28T05:39:17.297Z,98097.47
2023-04-28T05:41:43.602Z,98097.69
2023-04-28T05:44:10.356Z,98086.53
2023-04-28T05:46:37.354Z,98077.47
2023-04-28T05:49:03.707Z,98074.78
2023-04-28T05:51:30.167Z,98068.94
2023-04-28T05:53:57.264Z,98075.88
2023-04-28T05:56:24.621Z,98081.47
2023-04-28T05:58:51.549Z,98079.59
2023-04-28T06:01:18.261Z,98086.00
2023-04-28T06:03:45.358Z,98087.84
2023-04-28T06:06:12.934Z,98090.50
2023-04-28T06:08:39.698Z,98095.84
2023-04-28T06:11:11.359Z,98093.47
2023-04-28T06:13:38.934Z,98077.75
2023-04-28T06:16:05.566Z,98084.16
2023-04-28T06:18:36.663Z,98082.00
2023-04-28T06:21:09.328Z,98076.94
2023-04-28T06:23:37.286Z,98080.41
2023-04-28T06:26:06.055Z,98078.81
2023-04-28T06:28:37.548Z,98084.16
2023-04-28T06:34:28.765Z,98092.13
2023-04-28T06:36:56.563Z,98082.81
2023-04-28T06:39:23.512Z,98072.94
2023-04-28T06:41:51.805Z,98064.94
2023-04-28T06:44:18.621Z,98061.47
2023-04-28T06:46:46.729Z,98067.88
2023-04-28T06:49:14.015Z,98058.53
2023-04-28T06:51:40.364Z,98064.13
2023-04-28T06:54:08.314Z,98063.34
2023-04-28T06:56:36.575Z,98067.88
2023-04-28T06:59:04.356Z,98058.28
2023-04-28T07:01:31.280Z,98061.47
2023-04-28T07:04:03.057Z,98056.94
2023-04-28T07:06:31.802Z,98052.69
2023-04-28T07:08:58.174Z,98053.47
2023-04-28T07:11:24.949Z,98050.56
2023-04-28T07:13:53.913Z,98049.75
2023-04-28T07:16:21.978Z,98049.75
2023-04-28T07:18:48.327Z,98038.56
2023-04-28T07:21:16.126Z,98040.44
2023-04-28T07:23:46.335Z,98035.91
2023-04-28T07:26:16.201Z,98032.44
2023-04-28T07:28:43.603Z,98030.84
2023-04-28T07:31:10.464Z,98027.63
2023-04-28T07:33:38.849Z,98034.59
2023-04-28T07:36:08.758Z,98040.44
2023-04-28T07:38:39.019Z,98042.03
2023-04-28T07:41:11.173Z,98042.59
2023-04-28T07:43:41.155Z,98047.38
2023-04-28T07:46:10.147Z,98045.78
2023-04-28T07:48:36.630Z,98039.66
2023-04-28T07:51:03.127Z,98036.97
2023-04-28T07:53:29.456Z,98040.44
2023-04-28T07:55:56.960Z,98034.53
2023-04-28T07:58:27.037Z,98035.63
2023-04-28T08:00:55.788Z,98033.25
2023-04-28T08:03:23.773Z,98030.06
2023-04-28T08:05:53.426Z,98018.88
2023-04-28T08:08:20.126Z,98014.88
2023-04-28T08:10:48.337Z,98018.34
2023-04-28T08:20:09.074Z,98022.88
2023-04-28T08:22:39.117Z,98017.53
2023-04-28T08:25:05.677Z,98020.22
2023-04-28T08:27:34.083Z,98024.47
2023-04-28T08:30:02.046Z,98024.47
2023-04-28T08:32:28.485Z,98023.91
2023-04-28T08:34:56.851Z,98021.00
2023-04-28T08:37:26.070Z,98015.38
2023-04-28T08:40:01.114Z,98009.78
2023-04-28T08:42:34.274Z,98014.31
2023-04-28T08:45:01.640Z,98013.28
2023-04-28T08:47:38.528Z,98012.44
2023-04-28T08:50:08.185Z,98013.28
2023-04-28T08:52:36.134Z,98008.75
2023-04-28T08:55:19.952Z,97999.66
2023-04-28T08:57:47.453Z,98000.47
2023-04-28T09:00:14.109Z,98000.47
2023-04-28T09:02:42.837Z,98001.25
2023-04-28T09:05:15.816Z,98000.47
2023-04-28T09:07:47.783Z,97999.66
2023-04-28T09:10:23.868Z,97995.94
2023-04-28T09:12:55.511Z,97994.34
2023-04-28T09:15:42.059Z,97987.16
2023-04-28T09:18:08.692Z,97989.53
2023-04-28T09:20:38.347Z,97982.34
2023-04-28T09:23:17.802Z,97974.88
2023-04-28T09:25:58.218Z,97988.47
2023-04-28T09:28:33.014Z,97980.19
2023-04-28T09:30:59.662Z,97979.91
2023-04-28T09:33:26.611Z,97982.03
2023-04-28T09:36:05.624Z,97978.59
2023-04-28T09:38:38.214Z,97972.47
2023-04-28T09:41:08.064Z,97982.84
2023-04-28T09:43:41.728Z,97982.03
2023-04-28T09:46:12.280Z,97984.72
2023-04-28T09:48:38.674Z,97986.84
2023-04-28T09:51:06.101Z,97981.53
2023-04-28T09:53:34.933Z,97980.19
2023-04-28T09:56:03.998Z,97986.31
2023-04-28T09:58:34.695Z,97979.66
2023-04-28T10:01:03.584Z,97986.59
2023-04-28T10:03:41.932Z,97996.44
2023-04-28T10:06:08.833Z,97983.13
2023-04-28T10:08:38.136Z,97978.03
2023-04-28T10:11:04.464Z,97979.91
2023-04-28T10:13:32.636Z,97977.53
2023-04-28T10:16:01.573Z,97973.78
2023-04-28T10:18:28.060Z,97972.47
2023-04-28T10:24:22.669Z,97973.00
2023-04-28T10:26:55.588Z,97975.38
2023-04-28T10:29:27.273Z,97962.06
2023-04-28T10:32:21.625Z,97951.41
2023-04-28T10:34:50.178Z,97949.81
2023-04-28T10:37:27.076Z,97952.47
2023-04-28T10:40:11.902Z,97953.25
2023-04-28T10:42:57.188Z,97953.75
2023-04-28T10:45:42.146Z,97949.13
2023-04-28T10:48:08.620Z,97946.16
2023-04-28T10:50:38.990Z,97943.72
2023-04-28T10:53:05.757Z,97937.56
2023-04-28T10:55:33.945Z,97941.06
2023-04-28T10:58:15.366Z,97937.03
2023-04-28T11:00:42.999Z,97940.78
2023-04-28T11:03:14.516Z,97934.38
2023-04-28T11:06:05.133Z,97941.28
2023-04-28T11:08:32.076Z,97935.94
2023-04-28T11:11:12.649Z,97925.03
2023-04-28T11:13:45.370Z,97929.28
2023-04-28T11:16:12.803Z,97924.50
2023-04-28T11:18:55.746Z,97919.94
2023-04-28T11:21:22.641Z,97927.13
2023-04-28T11:23:50.301Z,97926.06
2023-04-28T11:26:17.160Z,97931.41
2023-04-28T11:28:56.920Z,97941.81
2023-04-28T11:31:25.113Z,97937.56
2023-04-28T11:33:56.817Z,97935.69
2023-04-28T11:36:27.264Z,97941.56
2023-04-28T11:38:54.737Z,97938.41
2023-04-28T11:41:22.467Z,97935.19
2023-04-28T11:43:51.627Z,97928.56
2023-04-28T11:46:21.271Z,97935.72
2023-04-28T11:48:54.717Z,97931.75
2023-04-28T11:51:28.156Z,97923.25
2023-04-28T11:53:56.995Z,97920.06
2023-04-28T11:56:24.032Z,97919.53
2023-04-28T11:59:01.780Z,97918.75
2023-04-28T12:01:38.945Z,97919.53
2023-04-28T12:04:07.007Z,97909.66
2023-04-28T12:06:34.751Z,97913.13
2023-04-28T12:09:15.048Z,97912.06
2023-04-28T12:11:52.284Z,97903.25
2023-04-28T12:14:26.258Z,97900.31
2023-04-28T12:16:53.348Z,97902.97
2023-04-28T12:19:22.571Z,97896.59
2023-04-28T12:22:31.553Z,97902.72
2023-04-28T12:25:10.868Z,97904.59
2023-04-28T12:27:39.395Z,97894.97
2023-04-28T12:30:21.462Z,97898.44
2023-04-28T12:32:48.876Z,97889.63
2023-04-28T12:35:16.843Z,97889.63
2023-04-28T12:37:45.810Z,97884.59
2023-04-28T12:40:17.280Z,97886.19
2023-04-28T12:42:44.544Z,97886.97
2023-04-28T12:45:10.935Z,97879.78
2023-04-28T12:47:40.827Z,97882.19
2023-04-28T12:50:08.961Z,97888.31
2023-04-28T12:52:38.592Z,97885.63
2023-04-28T12:55:07.165Z,97877.63
2023-04-28T12:57:39.109Z,97887.22
2023-04-28T13:00:08.325Z,97877.63
2023-04-28T13:02:40.320Z,97886.44
2023-04-28T13:05:07.317Z,97885.34
2023-04-28T13:07:34.164Z,97875.78
2023-04-28T13:10:00.731Z,97872.84
2023-04-28T13:12:28.209Z,97870.44
2023-04-28T13:14:57.826Z,97880.59
2023-04-28T13:17:25.463Z,97875.25
2023-04-28T13:19:51.806Z,97876.31
2023-04-28T13:22:18.289Z,97873.94
2023-04-28T13:24:47.240Z,97877.38
2023-04-28T13:27:21.152Z,97874.22
2023-04-28T13:29:47.843Z,97876.88
2023-04-28T13:32:16.991Z,97867.81
2023-04-28T13:34:43.960Z,97864.34
2023-04-28T13:37:12.492Z,97860.84
2023-04-28T13:39:38.848Z,97850.41
2023-04-28T13:42:07.868Z,97858.09
2023-04-28T13:44:36.489Z,97856.22
2023-04-28T13:47:04.280Z,97851.13
2023-04-28T13:49:30.864Z,97853.81
2023-04-28T13:51:58.418Z,97846.09
2023-04-28T13:54:24.872Z,97846.88
2023-04-28T13:57:00.023Z,97841.56
2023-04-28T13:59:31.920Z,97838.88
2023-04-28T14:01:58.234Z,97844.22
2023-04-28T14:04:25.184Z,97843.41
2023-04-28T14:06:52.183Z,97837.81
2023-04-28T14:09:23.281Z,97842.88
2023-04-28T14:11:49.598Z,97835.69
2023-04-28T14:14:16.246Z,97830.59
2023-04-28T14:16:43.600Z,97829.81
2023-04-28T14:19:11.308Z,97832.53
2023-04-28T14:21:38.028Z,97830.91
2023-04-28T14:24:04.665Z,97827.22
2023-04-28T14:26:31.191Z,97824.56
2023-04-28T14:28:57.830Z,97820.81
2023-04-28T14:31:24.777Z,97817.34
2023-04-28T14:33:51.307Z,97809.84
2023-04-28T14:36:17.645Z,97816.53
2023-04-28T14:38:44.295Z,97818.16
2023-04-28T14:41:11.180Z,97814.69
2023-04-28T14:43:38.033Z,97804.28
2023-04-28T14:46:04.763Z,97805.34
2023-04-28T14:48:37.819Z,97805.34
2023-04-28T14:51:04.133Z,97806.06
2023-04-28T14:53:32.923Z,97803.31
2023-04-28T14:56:10.860Z,97807.47
2023-04-28T14:58:44.625Z,97800.69
2023-04-28T15:01:14.159Z,97803.50
2023-04-28T15:03:41.075Z,97803.16
2023-04-28T15:06:08.153Z,97794.84
2023-04-28T15:08:35.057Z,97794.84
2023-04-28T15:11:02.170Z,97798.59
2023-04-28T15:13:28.632Z,97784.47
2023-04-28T15:15:55.278Z,97788.22
2023-04-28T15:18:21.919Z,97791.19
2023-04-28T15:20:48.988Z,97781.31
2023-04-28T15:23:15.417Z,97779.69
2023-04-28T15:25:44.534Z,97780.50
2023-04-28T15:28:13.039Z,97775.44
2023-04-28T15:30:41.730Z,97780.50
2023-04-28T15:33:10.655Z,97787.69
2023-04-28T15:35:39.203Z,97783.44
2023-04-28T15:38:06.739Z,97786.09
2023-04-28T15:40:33.082Z,97786.91
2023-04-28T15:42:59.407Z,97783.19
2023-04-28T15:45:27.635Z,97787.44
2023-04-28T15:47:55.384Z,97783.97
2023-04-28T15:50:23.112Z,97781.50
2023-04-28T15:52:50.170Z,97786.63
2023-04-28T15:55:17.054Z,97785.56
2023-04-28T15:57:43.388Z,97785.31
2023-04-28T16:00:10.204Z,97791.75
2023-04-28T16:02:37.414Z,97792.59
2023-04-28T16:05:06.045Z,97797.94
2023-04-28T16:07:42.245Z,97793.00
2023-04-28T16:10:09.734Z,97791.31
2023-04-28T16:12:36.531Z,97779.88
2023-04-28T16:15:04.360Z,97782.22
2023-04-28T16:17:30.960Z,97774.00
2023-04-28T16:19:57.490Z,97776.31
2023-04-28T16:22:24.472Z,97773.78
2023-04-28T16:24:52.278Z,97778.78
2023-04-28T16:27:18.669Z,97782.56
2023-04-28T16:29:46.120Z,97775.97
2023-04-28T16:32:12.516Z,97786.72
2023-04-28T16:34:38.898Z,97786.22
2023-04-28T16:37:06.142Z,97790.56
2023-04-28T16:39:32.458Z,97789.25
2023-04-28T16:42:03.117Z,97779.13
2023-04-28T16:44:29.935Z,97781.59
2023-04-28T16:46:58.398Z,97777.84
2023-04-28T16:49:24.733Z,97770.38
2023-04-28T16:51:57.738Z,97773.91
2023-04-28T16:54:25.125Z,97770.91
2023-04-28T16:56:51.769Z,97762.72
2023-04-28T16:59:18.700Z,97773.47
2023-04-28T17:01:45.716Z,97758.50
2023-04-28T17:04:12.660Z,97766.03
2023-04-28T17:06:39.252Z,97772.47
2023-04-28T17:09:06.007Z,97763.13
2023-04-28T17:11:32.520Z,97765.31
2023-04-28T17:13:58.973Z,97765.06
2023-04-28T17:16:25.956Z,97761.88
2023-04-28T17:18:52.968Z,97754.44
2023-04-28T17:21:19.304Z,97752.84
2023-04-28T17:23:45.653Z,97753.41
2023-04-28T17:26:12.222Z,97753.69
2023-04-28T17:28:40.787Z,97754.47
2023-04-28T17:31:07.486Z,97756.63
2023-04-28T17:33:33.945Z,97748.91
2023-04-28T17:36:01.795Z,97746.53
2023-04-28T17:38:28.103Z,97751.34
2023-04-28T17:40:54.421Z,97754.81
2023-04-28T17:43:21.667Z,97743.94
2023-04-28T17:45:49.107Z,97752.19
2023-04-28T17:48:15.701Z,97753.00
2023-04-28T17:50:42.188Z,97751.66
2023-04-28T17:53:08.514Z,97748.34
2023-04-28T17:55:35.085Z,97751.25
2023-04-28T17:58:01.393Z,97755.44
2023-04-28T18:00:27.733Z,97755.72
2023-04-28T18:02:55.580Z,97763.91
2023-04-28T18:05:24.202Z,97765.53
2023-04-28T18:07:50.966Z,97760.69
2023-04-28T18:10:17.346Z,97758.50
2023-04-28T18:12:44.248Z,97757.94
2023-04-28T18:15:11.584Z,97763.00
2023-04-28T18:17:37.930Z,97766.50
2023-04-28T18:20:06.911Z,97772.63
2023-04-28T18:22:33.330Z,97760.84
2023-04-28T18:24:59.786Z,97762.94
2023-04-28T18:27:26.408Z,97761.09
2023-04-28T18:29:52.744Z,97763.75
2023-04-28T18:32:19.182Z,97756.78
2023-04-28T18:34:46.189Z,97757.66
2023-04-28T18:37:12.522Z,97759.53
2023-04-28T18:39:38.860Z,97763.81
2023-04-28T18:42:05.495Z,97764.31
2023-04-28T18:44:31.853Z,97766.19
2023-04-28T18:46:58.590Z,97761.16
2023-04-28T18:49:25.688Z,97768.56
2023-04-28T18:51:52.017Z,97771.75
2023-04-28T18:54:20.178Z,97770.09
2023-04-28T18:56:48.435Z,97777.69
2023-04-28T18:59:14.842Z,97774.16
2023-04-28T19:01:41.178Z,97786.66
2023-04-28T19:04:07.652Z,97787.94
2023-04-28T19:06:36.072Z,97786.88
2023-04-28T19:09:02.571Z,97802.31
2023-04-28T19:11:28.889Z,97796.72
2023-04-28T19:13:55.632Z,97803.94
2023-04-28T19:16:21.987Z,97800.19
2023-04-28T19:18:48.863Z,97810.06
2023-04-28T19:21:15.738Z,97810.56
2023-04-28T19:23:42.199Z,97818.34
2023-04-28T19:26:09.008Z,97823.22
2023-04-28T19:28:35.909Z,97823.69
2023-04-28T19:31:02.292Z,97828.56
2023-04-28T19:33:28.707Z,97828.00
2023-04-28T19:35:55.398Z,97831.78
2023-04-28T19:38:22.915Z,97837.72
2023-04-28T19:40:50.415Z,97833.75
2023-04-28T19:43:17.966Z,97835.63
2023-04-28T19:45:44.996Z,97836.97
2023-04-28T19:48:11.394Z,97841.03
2023-04-28T19:50:38.089Z,97836.19
2023-04-28T19:53:04.446Z,97833.31
2023-04-28T19:55:31.855Z,97835.16
2023-04-28T19:58:00.149Z,97833.56
2023-04-28T20:00:26.647Z,97837.63
2023-04-28T20:02:53.108Z,97839.78
2023-04-28T20:05:22.876Z,97837.69
2023-04-28T20:07:49.249Z,97843.28
2023-04-28T20:10:15.586Z,97843.88
2023-04-28T20:12:41.896Z,97841.47
2023-04-28T20:15:10.997Z,97843.94
2023-04-28T20:17:37.338Z,97840.81
2023-04-28T20:20:05.866Z,97845.13
2023-04-28T20:22:32.180Z,97845.97
2023-04-28T20:25:00.618Z,97838.22
2023-04-28T20:27:27.198Z,97838.28
2023-04-28T20:29:53.688Z,97839.63
2023-04-28T20:32:20.011Z,97836.72
2023-04-28T20:34:46.350Z,97837.81
2023-04-28T20:37:13.475Z,97832.75
2023-04-28T20:39:39.799Z,97833.31
2023-04-28T20:42:06.123Z,97829.84
2023-04-28T20:44:32.529Z,97838.41
2023-04-28T20:47:01.301Z,97836.56
2023-04-28T20:49:28.380Z,97833.13
2023-04-28T20:51:59.116Z,97837.66
2023-04-28T20:54:26.052Z,97833.41
2023-04-28T20:56:52.366Z,97837.97
2023-04-28T20:59:18.695Z,97835.00
2023-04-28T21:01:45.131Z,97833.13
2023-04-28T21:04:11.627Z,97833.72
2023-04-28T21:06:38.311Z,97832.13
2023-04-28T21:09:04.875Z,97830.78
2023-04-28T21:11:31.214Z,97833.47
2023-04-28T21:13:57.540Z,97831.88
2023-04-28T21:16:23.852Z,97832.13
2023-04-28T21:18:50.393Z,97830.56
2023-04-28T21:21:16.702Z,97830.84
2023-04-28T21:23:43.188Z,97831.13
2023-04-28T21:26:09.511Z,97826.06
2023-04-28T21:28:35.950Z,97830.91
2023-04-28T21:31:02.470Z,97826.09
2023-04-28T21:33:28.988Z,97833.31
2023-04-28T21:35:55.507Z,97830.38
2023-04-28T21:38:21.918Z,97835.75
2023-04-28T21:40:49.166Z,97835.75
2023-04-28T21:43:15.579Z,97835.50
2023-04-28T21:45:42.152Z,97841.88
2023-04-28T21:48:08.563Z,97839.22
2023-04-28T21:50:36.058Z,97834.97
2023-04-28T21:53:02.376Z,97835.50
2023-04-28T21:55:28.785Z,97832.56
2023-04-28T21:57:58.796Z,97836.84
2023-04-28T22:00:27.961Z,97830.69
2023-04-28T22:02:56.123Z,97836.31
2023-04-28T22:05:24.296Z,97840.28
2023-04-28T22:07:51.609Z,97833.41
2023-04-28T22:10:18.870Z,97832.34
2023-04-28T22:12:45.175Z,97843.53
2023-04-28T22:15:11.565Z,97841.41
2023-04-28T22:17:37.964Z,97844.38
2023-04-28T22:20:04.715Z,97843.56
2023-04-28T22:22:31.519Z,97840.88
2023-04-28T22:24:58.356Z,97845.44
2023-04-28T22:27:24.902Z,97847.31
2023-04-28T22:29:51.425Z,97849.41
2023-04-28T22:32:18.323Z,97844.38
2023-04-28T22:34:45.128Z,97850.75
2023-04-28T22:37:11.888Z,97843.84
2023-04-28T22:39:38.231Z,97846.50
2023-04-28T22:42:04.926Z,97846.81
2023-04-28T22:44:31.305Z,97842.53
2023-04-28T22:46:57.984Z,97847.88
2023-04-28T22:49:28.412Z,97847.06
2023-04-28T22:51:54.727Z,97854.28
2023-04-28T22:54:21.054Z,97858.81
2023-04-28T22:56:47.363Z,97850.31
2023-04-28T22:59:13.666Z,97847.09
2023-04-28T23:01:40.192Z,97853.25
2023-04-28T23:04:06.734Z,97849.78
2023-04-28T23:06:33.252Z,97842.88
2023-04-28T23:08:59.566Z,97845.28
2023-04-28T23:11:26.307Z,97853.91
2023-04-28T23:13:52.635Z,97845.91
2023-04-28T23:16:19.034Z,97844.56
2023-04-28T23:18:45.370Z,97846.44
2023-04-28T23:21:12.340Z,97843.25
2023-04-28T23:23:38.653Z,97843.53
2023-04-28T23:26:05.520Z,97851.81
2023-04-28T23:28:31.996Z,97845.69
2023-04-28T23:30:58.353Z,97852.88
2023-04-28T23:33:24.685Z,97858.47
2023-04-28T23:35:51.366Z,97852.63
2023-04-28T23:38:17.679Z,97852.91
2023-04-28T23:40:44.028Z,97868.91
2023-04-28T23:43:10.336Z,97861.97
2023-04-28T23:45:36.712Z,97861.19
2023-04-28T23:48:03.068Z,97854.25
2023-04-28T23:50:29.481Z,97861.47
2023-04-28T23:52:55.824Z,97854.53
2023-04-28T23:55:22.163Z,97859.09
2023-04-28T23:57:48.479Z,97860.94
